<?xml version="1.0" encoding="UTF-8"?>
<gpx version="1.1" creator="2bulu-scraper" xmlns="http://www.topografix.com/GPX/1/1">
  <metadata><name>内江东兴区</name><desc>source: 2bulu.com trackId=78544134; exported 2026-09-01T17:54:30.585Z</desc>
    <bounds minlat="29.5718783" minlon="105.1447404" maxlat="29.5827691" maxlon="105.1580339"/>
    <link href="https://www.2bulu.com/track/t-0T7e3CZDXovp%252FR2KBg5Tzw%253D%253D.htm"><text>2bulu 源页面</text></link>
  </metadata>
  <wpt lat="29.5812983" lon="105.1577233"><ele>354</ele><name></name></wpt>
  <wpt lat="29.5812983" lon="105.1577233"><ele>354</ele><name></name></wpt>
  <wpt lat="29.5813333" lon="105.1577117"><ele>355</ele><name>2.65*7.4</name></wpt>
  <wpt lat="29.5797002" lon="105.150175"><ele>344</ele><name></name></wpt>
  <wpt lat="29.5797002" lon="105.150175"><ele>344</ele><name></name></wpt>
  <wpt lat="29.5797002" lon="105.150175"><ele>344</ele><name></name></wpt>
  <wpt lat="29.5793331" lon="105.1498786"><ele>347</ele><name></name></wpt>
  <wpt lat="29.5789082" lon="105.1495841"><ele>356</ele><name></name></wpt>
  <wpt lat="29.5786088" lon="105.1493707"><ele>362</ele><name></name></wpt>
  <wpt lat="29.5784819" lon="105.1493055"><ele>359</ele><name></name></wpt>
  <wpt lat="29.5782629" lon="105.1491671"><ele>360</ele><name></name></wpt>
  <wpt lat="29.5779512" lon="105.150041"><ele>345</ele><name></name></wpt>
  <wpt lat="29.5779512" lon="105.150041"><ele>345</ele><name></name></wpt>
  <wpt lat="29.5779001" lon="105.150136"><ele>341</ele><name></name></wpt>
  <wpt lat="29.5781614" lon="105.1495752"><ele>351</ele><name></name></wpt>
  <wpt lat="29.5782646" lon="105.1492823"><ele>351</ele><name></name></wpt>
  <wpt lat="29.5779459" lon="105.1489307"><ele>349</ele><name></name></wpt>
  <wpt lat="29.5774397" lon="105.1486236"><ele>349</ele><name></name></wpt>
  <wpt lat="29.5774397" lon="105.1486236"><ele>349</ele><name></name></wpt>
  <wpt lat="29.5772733" lon="105.14851"><ele>348</ele><name></name></wpt>
  <wpt lat="29.5766431" lon="105.1492962"><ele>343</ele><name></name></wpt>
  <wpt lat="29.5762649" lon="105.1491403"><ele>338</ele><name></name></wpt>
  <wpt lat="29.5762282" lon="105.1490436"><ele>337</ele><name></name></wpt>
  <wpt lat="29.5759273" lon="105.147531"><ele>333</ele><name></name></wpt>
  <wpt lat="29.5759273" lon="105.147531"><ele>333</ele><name></name></wpt>
  <wpt lat="29.5758624" lon="105.1472695"><ele>334</ele><name></name></wpt>
  <wpt lat="29.5748929" lon="105.1467506"><ele>343</ele><name></name></wpt>
  <wpt lat="29.5747815" lon="105.1467531"><ele>345</ele><name></name></wpt>
  <wpt lat="29.5745737" lon="105.1467932"><ele>346</ele><name></name></wpt>
  <wpt lat="29.5745737" lon="105.1467932"><ele>346</ele><name></name></wpt>
  <wpt lat="29.5736285" lon="105.14596"><ele>341</ele><name></name></wpt>
  <wpt lat="29.5734823" lon="105.145781"><ele>342</ele><name></name></wpt>
  <wpt lat="29.5734417" lon="105.1458783"><ele>341</ele><name></name></wpt>
  <wpt lat="29.5733567" lon="105.14584"><ele>338</ele><name></name></wpt>
  <wpt lat="29.5732183" lon="105.1457033"><ele>336</ele><name></name></wpt>
  <wpt lat="29.573126" lon="105.145615"><ele>336</ele><name></name></wpt>
  <wpt lat="29.573126" lon="105.145615"><ele>336</ele><name></name></wpt>
  <wpt lat="29.573126" lon="105.145615"><ele>336</ele><name></name></wpt>
  <wpt lat="29.573126" lon="105.145615"><ele>336</ele><name></name></wpt>
  <wpt lat="29.5730483" lon="105.145775"><ele>334</ele><name></name></wpt>
  <wpt lat="29.5729869" lon="105.1455873"><ele>332</ele><name></name></wpt>
  <wpt lat="29.5729869" lon="105.1455873"><ele>332</ele><name></name></wpt>
  <wpt lat="29.5721663" lon="105.1450368"><ele>332</ele><name></name></wpt>
  <wpt lat="29.5721663" lon="105.1450368"><ele>332</ele><name></name></wpt>
  <wpt lat="29.5721663" lon="105.1450368"><ele>332</ele><name></name></wpt>
  <wpt lat="29.5718783" lon="105.1455018"><ele>326</ele><name></name></wpt>
  <wpt lat="29.571835" lon="105.1454833"><ele>326</ele><name></name></wpt>
  <wpt lat="29.5732367" lon="105.1453267"><ele>338</ele><name></name></wpt>
  <wpt lat="29.5732712" lon="105.1455768"><ele>338</ele><name></name></wpt>
  <wpt lat="29.5743282" lon="105.1459215"><ele>343</ele><name></name></wpt>
  <wpt lat="29.5742774" lon="105.1458638"><ele>338</ele><name></name></wpt>
  <wpt lat="29.5743477" lon="105.1457633"><ele>332</ele><name></name></wpt>
  <wpt lat="29.5744427" lon="105.1456978"><ele>332</ele><name></name></wpt>
  <wpt lat="29.581479" lon="105.1579393"><ele>349</ele><name></name></wpt>
  <wpt lat="29.5813911" lon="105.1579023"><ele>352</ele><name></name></wpt>
  <wpt lat="29.581485" lon="105.1579167"><ele>349</ele><name></name></wpt>
  <wpt lat="29.581485" lon="105.1579167"><ele>349</ele><name></name></wpt>
  <trk><name>内江东兴区</name>
      <trkseg>
        <trkpt lat="29.5812983" lon="105.1577233"><ele>354</ele><time>2026-01-27T16:57:32.000Z</time></trkpt>
        <trkpt lat="29.58138" lon="105.1576383"><ele>354</ele><time>2026-01-27T17:01:02.000Z</time></trkpt>
        <trkpt lat="29.5813917" lon="105.1575117"><ele>353.48</ele><time>2026-01-27T17:01:04.000Z</time></trkpt>
        <trkpt lat="29.581385" lon="105.157385"><ele>352.97</ele><time>2026-01-27T17:01:06.000Z</time></trkpt>
        <trkpt lat="29.5813789" lon="105.1572635"><ele>352.77</ele><time>2026-01-27T17:01:10.000Z</time></trkpt>
        <trkpt lat="29.5813517" lon="105.1571122"><ele>352.74</ele><time>2026-01-27T17:01:16.000Z</time></trkpt>
        <trkpt lat="29.5813082" lon="105.1569488"><ele>354.01</ele><time>2026-01-27T17:01:20.000Z</time></trkpt>
        <trkpt lat="29.5812852" lon="105.1567486"><ele>354.01</ele><time>2026-01-27T17:01:24.000Z</time></trkpt>
        <trkpt lat="29.5813213" lon="105.1566039"><ele>353.32</ele><time>2026-01-27T17:01:26.000Z</time></trkpt>
        <trkpt lat="29.5813838" lon="105.1564886"><ele>352.02</ele><time>2026-01-27T17:01:28.000Z</time></trkpt>
        <trkpt lat="29.5814576" lon="105.1563775"><ele>350.72</ele><time>2026-01-27T17:01:30.000Z</time></trkpt>
        <trkpt lat="29.5815385" lon="105.1562742"><ele>349.64</ele><time>2026-01-27T17:01:32.000Z</time></trkpt>
        <trkpt lat="29.581671" lon="105.1561973"><ele>348.2</ele><time>2026-01-27T17:01:36.000Z</time></trkpt>
        <trkpt lat="29.5817882" lon="105.1562115"><ele>346.65</ele><time>2026-01-27T17:01:38.000Z</time></trkpt>
        <trkpt lat="29.581965" lon="105.1562956"><ele>345.6</ele><time>2026-01-27T17:01:42.000Z</time></trkpt>
        <trkpt lat="29.5821086" lon="105.1563541"><ele>346.16</ele><time>2026-01-27T17:01:44.000Z</time></trkpt>
        <trkpt lat="29.58224" lon="105.15638"><ele>346.43</ele><time>2026-01-27T17:01:46.000Z</time></trkpt>
        <trkpt lat="29.5823441" lon="105.1563702"><ele>346.12</ele><time>2026-01-27T17:01:48.000Z</time></trkpt>
        <trkpt lat="29.5824088" lon="105.1562916"><ele>345.68</ele><time>2026-01-27T17:01:50.000Z</time></trkpt>
        <trkpt lat="29.5824508" lon="105.1561563"><ele>345.43</ele><time>2026-01-27T17:01:52.000Z</time></trkpt>
        <trkpt lat="29.5824864" lon="105.156014"><ele>345.29</ele><time>2026-01-27T17:01:54.000Z</time></trkpt>
        <trkpt lat="29.5825463" lon="105.1558987"><ele>345.77</ele><time>2026-01-27T17:01:56.000Z</time></trkpt>
        <trkpt lat="29.5826358" lon="105.1557742"><ele>345.26</ele><time>2026-01-27T17:02:00.000Z</time></trkpt>
        <trkpt lat="29.5826945" lon="105.1556315"><ele>344.29</ele><time>2026-01-27T17:02:06.000Z</time></trkpt>
        <trkpt lat="29.582715" lon="105.1554604"><ele>344.6</ele><time>2026-01-27T17:02:10.000Z</time></trkpt>
        <trkpt lat="29.5826785" lon="105.1552753"><ele>345.03</ele><time>2026-01-27T17:02:14.000Z</time></trkpt>
        <trkpt lat="29.5826049" lon="105.1551073"><ele>345.19</ele><time>2026-01-27T17:02:18.000Z</time></trkpt>
        <trkpt lat="29.5825058" lon="105.1549702"><ele>345.54</ele><time>2026-01-27T17:02:22.000Z</time></trkpt>
        <trkpt lat="29.5823894" lon="105.1548406"><ele>345.74</ele><time>2026-01-27T17:02:26.000Z</time></trkpt>
        <trkpt lat="29.5822803" lon="105.1547122"><ele>346.15</ele><time>2026-01-27T17:02:30.000Z</time></trkpt>
        <trkpt lat="29.5821756" lon="105.1545741"><ele>346.9</ele><time>2026-01-27T17:02:34.000Z</time></trkpt>
        <trkpt lat="29.5820924" lon="105.1544356"><ele>350.13</ele><time>2026-01-27T17:02:38.000Z</time></trkpt>
        <trkpt lat="29.5820099" lon="105.154292"><ele>354.8</ele><time>2026-01-27T17:02:42.000Z</time></trkpt>
        <trkpt lat="29.5819593" lon="105.1541867"><ele>357.34</ele><time>2026-01-27T17:02:44.000Z</time></trkpt>
        <trkpt lat="29.5819185" lon="105.1540832"><ele>358.66</ele><time>2026-01-27T17:02:46.000Z</time></trkpt>
        <trkpt lat="29.5818805" lon="105.1539159"><ele>359.32</ele><time>2026-01-27T17:02:50.000Z</time></trkpt>
        <trkpt lat="29.5818507" lon="105.1537378"><ele>357.07</ele><time>2026-01-27T17:02:54.000Z</time></trkpt>
        <trkpt lat="29.5818466" lon="105.1535826"><ele>354.12</ele><time>2026-01-27T17:02:58.000Z</time></trkpt>
        <trkpt lat="29.5818585" lon="105.1534616"><ele>351.44</ele><time>2026-01-27T17:03:00.000Z</time></trkpt>
        <trkpt lat="29.581848" lon="105.1533042"><ele>349.36</ele><time>2026-01-27T17:03:04.000Z</time></trkpt>
        <trkpt lat="29.5818023" lon="105.153154"><ele>347.7</ele><time>2026-01-27T17:03:08.000Z</time></trkpt>
        <trkpt lat="29.5817303" lon="105.153025"><ele>346.32</ele><time>2026-01-27T17:03:12.000Z</time></trkpt>
        <trkpt lat="29.5816243" lon="105.1529039"><ele>345.88</ele><time>2026-01-27T17:03:16.000Z</time></trkpt>
        <trkpt lat="29.581506" lon="105.1527682"><ele>345.33</ele><time>2026-01-27T17:03:20.000Z</time></trkpt>
        <trkpt lat="29.5813989" lon="105.1526363"><ele>345.53</ele><time>2026-01-27T17:03:24.000Z</time></trkpt>
        <trkpt lat="29.5813534" lon="105.1525109"><ele>347.33</ele><time>2026-01-27T17:03:28.000Z</time></trkpt>
        <trkpt lat="29.5813084" lon="105.1523717"><ele>348.17</ele><time>2026-01-27T17:03:32.000Z</time></trkpt>
        <trkpt lat="29.5812394" lon="105.1522269"><ele>348.14</ele><time>2026-01-27T17:03:36.000Z</time></trkpt>
        <trkpt lat="29.5811436" lon="105.152112"><ele>346.62</ele><time>2026-01-27T17:03:40.000Z</time></trkpt>
        <trkpt lat="29.581036" lon="105.1520287"><ele>347.6</ele><time>2026-01-27T17:03:44.000Z</time></trkpt>
        <trkpt lat="29.5809384" lon="105.151938"><ele>349.06</ele><time>2026-01-27T17:03:48.000Z</time></trkpt>
        <trkpt lat="29.5808571" lon="105.1518597"><ele>349.85</ele><time>2026-01-27T17:03:52.000Z</time></trkpt>
        <trkpt lat="29.5807722" lon="105.1517776"><ele>352.33</ele><time>2026-01-27T17:03:56.000Z</time></trkpt>
        <trkpt lat="29.5806963" lon="105.1516704"><ele>354.77</ele><time>2026-01-27T17:04:00.000Z</time></trkpt>
        <trkpt lat="29.5806036" lon="105.1515398"><ele>355.51</ele><time>2026-01-27T17:04:04.000Z</time></trkpt>
        <trkpt lat="29.580528" lon="105.1514482"><ele>355.89</ele><time>2026-01-27T17:04:06.000Z</time></trkpt>
        <trkpt lat="29.5804716" lon="105.1513627"><ele>355.34</ele><time>2026-01-27T17:04:08.000Z</time></trkpt>
        <trkpt lat="29.5803879" lon="105.1512382"><ele>353.13</ele><time>2026-01-27T17:04:12.000Z</time></trkpt>
        <trkpt lat="29.5803079" lon="105.1510949"><ele>350.66</ele><time>2026-01-27T17:04:16.000Z</time></trkpt>
        <trkpt lat="29.5802325" lon="105.1509562"><ele>348.36</ele><time>2026-01-27T17:04:20.000Z</time></trkpt>
        <trkpt lat="29.5801451" lon="105.150825"><ele>346.78</ele><time>2026-01-27T17:04:24.000Z</time></trkpt>
        <trkpt lat="29.580032" lon="105.1506997"><ele>346.15</ele><time>2026-01-27T17:04:28.000Z</time></trkpt>
        <trkpt lat="29.5799226" lon="105.1505628"><ele>344.49</ele><time>2026-01-27T17:04:32.000Z</time></trkpt>
        <trkpt lat="29.5798426" lon="105.1504564"><ele>342.04</ele><time>2026-01-27T17:04:36.000Z</time></trkpt>
        <trkpt lat="29.5797677" lon="105.150329"><ele>338.8</ele><time>2026-01-27T17:04:40.000Z</time></trkpt>
        <trkpt lat="29.5796985" lon="105.1502289"><ele>337.98</ele><time>2026-01-27T17:04:44.000Z</time></trkpt>
        <trkpt lat="29.5796492" lon="105.1502193"><ele>339.37</ele><time>2026-01-27T17:04:48.000Z</time></trkpt>
        <trkpt lat="29.5797002" lon="105.150175"><ele>341.1</ele><time>2026-01-27T17:05:44.000Z</time></trkpt>
        <trkpt lat="29.57966" lon="105.15012"><ele>342.13</ele><time>2026-01-27T17:08:26.000Z</time></trkpt>
        <trkpt lat="29.57954" lon="105.1499933"><ele>341.86</ele><time>2026-01-27T17:09:00.000Z</time></trkpt>
        <trkpt lat="29.5794299" lon="105.1499386"><ele>343.81</ele><time>2026-01-27T17:09:24.000Z</time></trkpt>
        <trkpt lat="29.5793331" lon="105.1498786"><ele>345.31</ele><time>2026-01-27T17:09:42.000Z</time></trkpt>
        <trkpt lat="29.579243" lon="105.1498198"><ele>346.21</ele><time>2026-01-27T17:10:04.000Z</time></trkpt>
        <trkpt lat="29.5791611" lon="105.1497706"><ele>349.05</ele><time>2026-01-27T17:10:16.000Z</time></trkpt>
        <trkpt lat="29.5790976" lon="105.1496992"><ele>350.53</ele><time>2026-01-27T17:10:28.000Z</time></trkpt>
        <trkpt lat="29.5790136" lon="105.1496286"><ele>352.02</ele><time>2026-01-27T17:11:06.000Z</time></trkpt>
        <trkpt lat="29.5789082" lon="105.1495841"><ele>355.02</ele><time>2026-01-27T17:11:28.000Z</time></trkpt>
        <trkpt lat="29.5788189" lon="105.1495268"><ele>355.36</ele><time>2026-01-27T17:12:10.000Z</time></trkpt>
        <trkpt lat="29.5787132" lon="105.1494562"><ele>360.11</ele><time>2026-01-27T17:12:26.000Z</time></trkpt>
        <trkpt lat="29.5786088" lon="105.1493707"><ele>362.26</ele><time>2026-01-27T17:12:42.000Z</time></trkpt>
        <trkpt lat="29.5784819" lon="105.1493055"><ele>362.1</ele><time>2026-01-27T17:13:04.000Z</time></trkpt>
        <trkpt lat="29.5783522" lon="105.1492339"><ele>360.81</ele><time>2026-01-27T17:13:38.000Z</time></trkpt>
        <trkpt lat="29.5782629" lon="105.1491671"><ele>360.98</ele><time>2026-01-27T17:13:50.000Z</time></trkpt>
        <trkpt lat="29.5782368" lon="105.1492286"><ele>360.39</ele><time>2026-01-27T17:14:08.000Z</time></trkpt>
        <trkpt lat="29.5781959" lon="105.1493292"><ele>360.95</ele><time>2026-01-27T17:14:22.000Z</time></trkpt>
        <trkpt lat="29.5781551" lon="105.149442"><ele>360.97</ele><time>2026-01-27T17:14:28.000Z</time></trkpt>
        <trkpt lat="29.5781417" lon="105.1494881"><ele>360.73</ele><time>2026-01-27T17:14:30.000Z</time></trkpt>
        <trkpt lat="29.5781061" lon="105.1496302"><ele>360.11</ele><time>2026-01-27T17:14:56.000Z</time></trkpt>
        <trkpt lat="29.5780568" lon="105.1497612"><ele>358.3</ele><time>2026-01-27T17:15:12.000Z</time></trkpt>
        <trkpt lat="29.5780114" lon="105.1498914"><ele>355.81</ele><time>2026-01-27T17:15:34.000Z</time></trkpt>
        <trkpt lat="29.5779884" lon="105.1499444"><ele>352.1</ele><time>2026-01-27T17:15:36.000Z</time></trkpt>
        <trkpt lat="29.5779512" lon="105.150041"><ele>349.82</ele><time>2026-01-27T17:15:48.000Z</time></trkpt>
        <trkpt lat="29.5779327" lon="105.1500571"><ele>347.79</ele><time>2026-01-27T17:16:47.000Z</time></trkpt>
        <trkpt lat="29.5779765" lon="105.150121"><ele>347.58</ele><time>2026-01-27T17:16:53.000Z</time></trkpt>
        <trkpt lat="29.5779556" lon="105.1500701"><ele>347.55</ele><time>2026-01-27T17:17:03.000Z</time></trkpt>
        <trkpt lat="29.5779272" lon="105.1500557"><ele>347.83</ele><time>2026-01-27T17:17:46.000Z</time></trkpt>
        <trkpt lat="29.5779001" lon="105.150136"><ele>347.26</ele><time>2026-01-27T17:18:29.000Z</time></trkpt>
        <trkpt lat="29.5779417" lon="105.15006"><ele>344.52</ele><time>2026-01-27T17:19:39.000Z</time></trkpt>
        <trkpt lat="29.57796" lon="105.149955"><ele>342.19</ele><time>2026-01-27T17:19:59.000Z</time></trkpt>
        <trkpt lat="29.5780108" lon="105.1498585"><ele>343.79</ele><time>2026-01-27T17:20:37.000Z</time></trkpt>
        <trkpt lat="29.5780673" lon="105.1497686"><ele>345.3</ele><time>2026-01-27T17:21:21.000Z</time></trkpt>
        <trkpt lat="29.5781245" lon="105.149682"><ele>347.15</ele><time>2026-01-27T17:22:11.000Z</time></trkpt>
        <trkpt lat="29.5781614" lon="105.1495752"><ele>348.72</ele><time>2026-01-27T17:22:29.000Z</time></trkpt>
        <trkpt lat="29.5781814" lon="105.1494604"><ele>349.61</ele><time>2026-01-27T17:23:19.000Z</time></trkpt>
        <trkpt lat="29.5782048" lon="105.1493548"><ele>349.39</ele><time>2026-01-27T17:23:49.000Z</time></trkpt>
        <trkpt lat="29.5782646" lon="105.1492823"><ele>350.26</ele><time>2026-01-27T17:24:23.000Z</time></trkpt>
        <trkpt lat="29.5782794" lon="105.1491792"><ele>350.71</ele><time>2026-01-27T17:24:45.000Z</time></trkpt>
        <trkpt lat="29.5782196" lon="105.149097"><ele>351.65</ele><time>2026-01-27T17:24:57.000Z</time></trkpt>
        <trkpt lat="29.5781305" lon="105.1490444"><ele>351.63</ele><time>2026-01-27T17:25:17.000Z</time></trkpt>
        <trkpt lat="29.578038" lon="105.1489843"><ele>350.33</ele><time>2026-01-27T17:25:33.000Z</time></trkpt>
        <trkpt lat="29.5779459" lon="105.1489307"><ele>349.67</ele><time>2026-01-27T17:25:47.000Z</time></trkpt>
        <trkpt lat="29.5778515" lon="105.1489201"><ele>349.25</ele><time>2026-01-27T17:26:29.000Z</time></trkpt>
        <trkpt lat="29.5777675" lon="105.148867"><ele>349.14</ele><time>2026-01-27T17:26:41.000Z</time></trkpt>
        <trkpt lat="29.577683" lon="105.1487943"><ele>348.26</ele><time>2026-01-27T17:26:55.000Z</time></trkpt>
        <trkpt lat="29.5776058" lon="105.1487216"><ele>347.63</ele><time>2026-01-27T17:27:27.000Z</time></trkpt>
        <trkpt lat="29.5775249" lon="105.1486617"><ele>347.83</ele><time>2026-01-27T17:27:47.000Z</time></trkpt>
        <trkpt lat="29.5774397" lon="105.1486236"><ele>347.6</ele><time>2026-01-27T17:28:37.000Z</time></trkpt>
        <trkpt lat="29.577355" lon="105.1485883"><ele>348.2</ele><time>2026-01-27T17:30:03.000Z</time></trkpt>
        <trkpt lat="29.5772733" lon="105.14851"><ele>347.51</ele><time>2026-01-27T17:30:19.000Z</time></trkpt>
        <trkpt lat="29.5771776" lon="105.1484937"><ele>347.51</ele><time>2026-01-27T17:30:41.000Z</time></trkpt>
        <trkpt lat="29.5770754" lon="105.1485"><ele>347.2</ele><time>2026-01-27T17:30:53.000Z</time></trkpt>
        <trkpt lat="29.5770264" lon="105.1485864"><ele>346.6</ele><time>2026-01-27T17:31:37.000Z</time></trkpt>
        <trkpt lat="29.5769506" lon="105.1486188"><ele>346.77</ele><time>2026-01-27T17:32:01.000Z</time></trkpt>
        <trkpt lat="29.5768952" lon="105.1486961"><ele>347.26</ele><time>2026-01-27T17:32:23.000Z</time></trkpt>
        <trkpt lat="29.5768299" lon="105.1487772"><ele>347.71</ele><time>2026-01-27T17:32:45.000Z</time></trkpt>
        <trkpt lat="29.5768074" lon="105.1488796"><ele>348.13</ele><time>2026-01-27T17:32:57.000Z</time></trkpt>
        <trkpt lat="29.5767883" lon="105.149015"><ele>348.85</ele><time>2026-01-27T17:34:15.000Z</time></trkpt>
        <trkpt lat="29.5767583" lon="105.1491133"><ele>348.05</ele><time>2026-01-27T17:34:29.000Z</time></trkpt>
        <trkpt lat="29.5767029" lon="105.1492018"><ele>347.17</ele><time>2026-01-27T17:34:49.000Z</time></trkpt>
        <trkpt lat="29.5766431" lon="105.1492962"><ele>345.89</ele><time>2026-01-27T17:35:07.000Z</time></trkpt>
        <trkpt lat="29.5765415" lon="105.1492972"><ele>344.48</ele><time>2026-01-27T17:35:59.000Z</time></trkpt>
        <trkpt lat="29.5764405" lon="105.1492669"><ele>343.45</ele><time>2026-01-27T17:36:13.000Z</time></trkpt>
        <trkpt lat="29.5763521" lon="105.1491973"><ele>342.27</ele><time>2026-01-27T17:36:27.000Z</time></trkpt>
        <trkpt lat="29.5762649" lon="105.1491403"><ele>340.65</ele><time>2026-01-27T17:36:39.000Z</time></trkpt>
        <trkpt lat="29.5762282" lon="105.1490436"><ele>339.34</ele><time>2026-01-27T17:37:01.000Z</time></trkpt>
        <trkpt lat="29.5761899" lon="105.1489454"><ele>338.16</ele><time>2026-01-27T17:37:41.000Z</time></trkpt>
        <trkpt lat="29.5762172" lon="105.1488234"><ele>337.27</ele><time>2026-01-27T17:37:59.000Z</time></trkpt>
        <trkpt lat="29.576267" lon="105.1487182"><ele>335.39</ele><time>2026-01-27T17:38:11.000Z</time></trkpt>
        <trkpt lat="29.5763094" lon="105.1486139"><ele>332.9</ele><time>2026-01-27T17:38:21.000Z</time></trkpt>
        <trkpt lat="29.5763594" lon="105.1485076"><ele>330.96</ele><time>2026-01-27T17:38:45.000Z</time></trkpt>
        <trkpt lat="29.5764208" lon="105.1484007"><ele>330.08</ele><time>2026-01-27T17:38:59.000Z</time></trkpt>
        <trkpt lat="29.57646" lon="105.1482975"><ele>329.74</ele><time>2026-01-27T17:39:07.000Z</time></trkpt>
        <trkpt lat="29.5764723" lon="105.1481932"><ele>328.69</ele><time>2026-01-27T17:39:17.000Z</time></trkpt>
        <trkpt lat="29.5764829" lon="105.1480747"><ele>327.88</ele><time>2026-01-27T17:39:29.000Z</time></trkpt>
        <trkpt lat="29.5764821" lon="105.1479622"><ele>326.98</ele><time>2026-01-27T17:39:35.000Z</time></trkpt>
        <trkpt lat="29.5764268" lon="105.1478726"><ele>326.6</ele><time>2026-01-27T17:39:45.000Z</time></trkpt>
        <trkpt lat="29.5763452" lon="105.1478104"><ele>325.83</ele><time>2026-01-27T17:39:53.000Z</time></trkpt>
        <trkpt lat="29.576249" lon="105.1477832"><ele>324.91</ele><time>2026-01-27T17:40:03.000Z</time></trkpt>
        <trkpt lat="29.5761419" lon="105.1477642"><ele>324.43</ele><time>2026-01-27T17:40:15.000Z</time></trkpt>
        <trkpt lat="29.5760384" lon="105.1477476"><ele>323.82</ele><time>2026-01-27T17:40:25.000Z</time></trkpt>
        <trkpt lat="29.5759458" lon="105.1477147"><ele>322.99</ele><time>2026-01-27T17:40:37.000Z</time></trkpt>
        <trkpt lat="29.5758554" lon="105.1476748"><ele>322.61</ele><time>2026-01-27T17:40:47.000Z</time></trkpt>
        <trkpt lat="29.5757758" lon="105.1475986"><ele>322.52</ele><time>2026-01-27T17:40:57.000Z</time></trkpt>
        <trkpt lat="29.5758326" lon="105.1475674"><ele>323.8</ele><time>2026-01-27T17:41:29.000Z</time></trkpt>
        <trkpt lat="29.5759273" lon="105.147531"><ele>328.1</ele><time>2026-01-27T17:41:39.000Z</time></trkpt>
        <trkpt lat="29.5759829" lon="105.1474263"><ele>330.21</ele><time>2026-01-27T17:42:07.000Z</time></trkpt>
        <trkpt lat="29.5759379" lon="105.147344"><ele>332.66</ele><time>2026-01-27T17:42:31.000Z</time></trkpt>
        <trkpt lat="29.5758624" lon="105.1472695"><ele>333.36</ele><time>2026-01-27T17:42:43.000Z</time></trkpt>
        <trkpt lat="29.5757757" lon="105.1471935"><ele>333.47</ele><time>2026-01-27T17:42:57.000Z</time></trkpt>
        <trkpt lat="29.5756929" lon="105.1471232"><ele>334.34</ele><time>2026-01-27T17:43:09.000Z</time></trkpt>
        <trkpt lat="29.5756119" lon="105.1470613"><ele>334.5</ele><time>2026-01-27T17:43:19.000Z</time></trkpt>
        <trkpt lat="29.5755254" lon="105.1470071"><ele>333.94</ele><time>2026-01-27T17:43:33.000Z</time></trkpt>
        <trkpt lat="29.57544" lon="105.1469427"><ele>332.59</ele><time>2026-01-27T17:43:43.000Z</time></trkpt>
        <trkpt lat="29.5753668" lon="105.1468587"><ele>332.89</ele><time>2026-01-27T17:43:57.000Z</time></trkpt>
        <trkpt lat="29.5752784" lon="105.1467952"><ele>333.5</ele><time>2026-01-27T17:44:09.000Z</time></trkpt>
        <trkpt lat="29.5751863" lon="105.146733"><ele>334.06</ele><time>2026-01-27T17:44:19.000Z</time></trkpt>
        <trkpt lat="29.5750922" lon="105.1467282"><ele>335.24</ele><time>2026-01-27T17:44:49.000Z</time></trkpt>
        <trkpt lat="29.5749917" lon="105.1467204"><ele>337.29</ele><time>2026-01-27T17:45:03.000Z</time></trkpt>
        <trkpt lat="29.5748929" lon="105.1467506"><ele>339.18</ele><time>2026-01-27T17:45:25.000Z</time></trkpt>
        <trkpt lat="29.5747815" lon="105.1467531"><ele>340.96</ele><time>2026-01-27T17:45:55.000Z</time></trkpt>
        <trkpt lat="29.5746782" lon="105.1467588"><ele>342.57</ele><time>2026-01-27T17:46:07.000Z</time></trkpt>
        <trkpt lat="29.5745737" lon="105.1467932"><ele>343.14</ele><time>2026-01-27T17:46:31.000Z</time></trkpt>
        <trkpt lat="29.5744787" lon="105.1467916"><ele>344.33</ele><time>2026-01-27T17:47:29.000Z</time></trkpt>
        <trkpt lat="29.5743885" lon="105.1467675"><ele>343.97</ele><time>2026-01-27T17:47:47.000Z</time></trkpt>
        <trkpt lat="29.5742933" lon="105.1467352"><ele>343.6</ele><time>2026-01-27T17:48:03.000Z</time></trkpt>
        <trkpt lat="29.5741933" lon="105.1467079"><ele>343.56</ele><time>2026-01-27T17:48:25.000Z</time></trkpt>
        <trkpt lat="29.5741015" lon="105.1467376"><ele>343.62</ele><time>2026-01-27T17:48:57.000Z</time></trkpt>
        <trkpt lat="29.5741006" lon="105.1466723"><ele>343.57</ele><time>2026-01-27T17:49:51.000Z</time></trkpt>
        <trkpt lat="29.5740738" lon="105.1465743"><ele>343.19</ele><time>2026-01-27T17:50:05.000Z</time></trkpt>
        <trkpt lat="29.5740135" lon="105.1464806"><ele>343.84</ele><time>2026-01-27T17:50:17.000Z</time></trkpt>
        <trkpt lat="29.5739423" lon="105.1463859"><ele>344.38</ele><time>2026-01-27T17:50:27.000Z</time></trkpt>
        <trkpt lat="29.5738694" lon="105.1463027"><ele>345.25</ele><time>2026-01-27T17:50:37.000Z</time></trkpt>
        <trkpt lat="29.5737996" lon="105.1462259"><ele>345.31</ele><time>2026-01-27T17:50:47.000Z</time></trkpt>
        <trkpt lat="29.5737317" lon="105.1461413"><ele>345.52</ele><time>2026-01-27T17:50:57.000Z</time></trkpt>
        <trkpt lat="29.573676" lon="105.1460547"><ele>344.65</ele><time>2026-01-27T17:51:11.000Z</time></trkpt>
        <trkpt lat="29.5736285" lon="105.14596"><ele>343.04</ele><time>2026-01-27T17:51:39.000Z</time></trkpt>
        <trkpt lat="29.573557" lon="105.1458689"><ele>342.25</ele><time>2026-01-27T17:52:33.000Z</time></trkpt>
        <trkpt lat="29.5734823" lon="105.145781"><ele>341.88</ele><time>2026-01-27T17:52:55.000Z</time></trkpt>
        <trkpt lat="29.5734417" lon="105.1458783"><ele>342.02</ele><time>2026-01-27T17:55:21.000Z</time></trkpt>
        <trkpt lat="29.5733567" lon="105.14584"><ele>341.71</ele><time>2026-01-27T17:56:09.000Z</time></trkpt>
        <trkpt lat="29.5733233" lon="105.1457183"><ele>340.11</ele><time>2026-01-27T17:57:13.000Z</time></trkpt>
        <trkpt lat="29.5732183" lon="105.1457033"><ele>339.2</ele><time>2026-01-27T17:57:37.000Z</time></trkpt>
        <trkpt lat="29.573126" lon="105.145615"><ele>337.7</ele><time>2026-01-27T17:58:21.000Z</time></trkpt>
        <trkpt lat="29.573115" lon="105.145705"><ele>337.01</ele><time>2026-01-27T18:00:43.000Z</time></trkpt>
        <trkpt lat="29.5730483" lon="105.145775"><ele>337.18</ele><time>2026-01-27T18:01:13.000Z</time></trkpt>
        <trkpt lat="29.5730141" lon="105.1456927"><ele>335.94</ele><time>2026-01-27T18:01:29.000Z</time></trkpt>
        <trkpt lat="29.5729869" lon="105.1455873"><ele>335.23</ele><time>2026-01-27T18:01:41.000Z</time></trkpt>
        <trkpt lat="29.5729367" lon="105.1454567"><ele>333.93</ele><time>2026-01-27T18:03:17.000Z</time></trkpt>
        <trkpt lat="29.5729017" lon="105.1453433"><ele>333.23</ele><time>2026-01-27T18:03:29.000Z</time></trkpt>
        <trkpt lat="29.5728751" lon="105.1452286"><ele>333.65</ele><time>2026-01-27T18:03:39.000Z</time></trkpt>
        <trkpt lat="29.5728449" lon="105.1451175"><ele>334.49</ele><time>2026-01-27T18:03:49.000Z</time></trkpt>
        <trkpt lat="29.5727773" lon="105.14504"><ele>335.48</ele><time>2026-01-27T18:04:03.000Z</time></trkpt>
        <trkpt lat="29.5727074" lon="105.1449572"><ele>336.05</ele><time>2026-01-27T18:04:19.000Z</time></trkpt>
        <trkpt lat="29.5726186" lon="105.1449156"><ele>336.07</ele><time>2026-01-27T18:04:31.000Z</time></trkpt>
        <trkpt lat="29.5725365" lon="105.1449623"><ele>335.91</ele><time>2026-01-27T18:04:41.000Z</time></trkpt>
        <trkpt lat="29.5724561" lon="105.1450335"><ele>335.73</ele><time>2026-01-27T18:05:01.000Z</time></trkpt>
        <trkpt lat="29.5723631" lon="105.1450624"><ele>335.38</ele><time>2026-01-27T18:05:17.000Z</time></trkpt>
        <trkpt lat="29.5722694" lon="105.1450524"><ele>334.87</ele><time>2026-01-27T18:05:37.000Z</time></trkpt>
        <trkpt lat="29.5721663" lon="105.1450368"><ele>334.07</ele><time>2026-01-27T18:05:55.000Z</time></trkpt>
        <trkpt lat="29.5720767" lon="105.1451267"><ele>333.31</ele><time>2026-01-27T18:07:35.000Z</time></trkpt>
        <trkpt lat="29.57206" lon="105.1452317"><ele>331.5</ele><time>2026-01-27T18:07:41.000Z</time></trkpt>
        <trkpt lat="29.5720137" lon="105.1453212"><ele>330.9</ele><time>2026-01-27T18:07:53.000Z</time></trkpt>
        <trkpt lat="29.5719506" lon="105.145413"><ele>330.73</ele><time>2026-01-27T18:08:11.000Z</time></trkpt>
        <trkpt lat="29.5718783" lon="105.1455018"><ele>329.3</ele><time>2026-01-27T18:08:23.000Z</time></trkpt>
        <trkpt lat="29.5719383" lon="105.1454083"><ele>327.66</ele><time>2026-01-27T18:12:07.000Z</time></trkpt>
        <trkpt lat="29.572" lon="105.145315"><ele>326.26</ele><time>2026-01-27T18:12:27.000Z</time></trkpt>
        <trkpt lat="29.5720617" lon="105.1452315"><ele>325.5</ele><time>2026-01-27T18:12:41.000Z</time></trkpt>
        <trkpt lat="29.5721002" lon="105.145128"><ele>325.76</ele><time>2026-01-27T18:13:01.000Z</time></trkpt>
        <trkpt lat="29.5721214" lon="105.1450194"><ele>326.55</ele><time>2026-01-27T18:13:15.000Z</time></trkpt>
        <trkpt lat="29.57225" lon="105.1450367"><ele>327.48</ele><time>2026-01-27T18:15:05.000Z</time></trkpt>
        <trkpt lat="29.5723417" lon="105.1450567"><ele>330.63</ele><time>2026-01-27T18:15:23.000Z</time></trkpt>
        <trkpt lat="29.5724333" lon="105.1450597"><ele>333.2</ele><time>2026-01-27T18:15:39.000Z</time></trkpt>
        <trkpt lat="29.572516" lon="105.1450135"><ele>335.18</ele><time>2026-01-27T18:15:53.000Z</time></trkpt>
        <trkpt lat="29.5725946" lon="105.1449392"><ele>336.09</ele><time>2026-01-27T18:16:05.000Z</time></trkpt>
        <trkpt lat="29.5726832" lon="105.1449166"><ele>335.75</ele><time>2026-01-27T18:16:25.000Z</time></trkpt>
        <trkpt lat="29.5727623" lon="105.1449634"><ele>335</ele><time>2026-01-27T18:16:47.000Z</time></trkpt>
        <trkpt lat="29.5728262" lon="105.1450508"><ele>335.3</ele><time>2026-01-27T18:16:59.000Z</time></trkpt>
        <trkpt lat="29.57291" lon="105.1450735"><ele>335.47</ele><time>2026-01-27T18:17:21.000Z</time></trkpt>
        <trkpt lat="29.5729558" lon="105.1450028"><ele>335.18</ele><time>2026-01-27T18:17:31.000Z</time></trkpt>
        <trkpt lat="29.5729396" lon="105.1450495"><ele>335.19</ele><time>2026-01-27T18:17:57.000Z</time></trkpt>
        <trkpt lat="29.5728938" lon="105.145141"><ele>336.27</ele><time>2026-01-27T18:18:07.000Z</time></trkpt>
        <trkpt lat="29.572869" lon="105.1452592"><ele>337.75</ele><time>2026-01-27T18:18:21.000Z</time></trkpt>
        <trkpt lat="29.5729159" lon="105.1453541"><ele>338.5</ele><time>2026-01-27T18:18:41.000Z</time></trkpt>
        <trkpt lat="29.5729487" lon="105.1454556"><ele>337.94</ele><time>2026-01-27T18:18:51.000Z</time></trkpt>
        <trkpt lat="29.5730167" lon="105.1455533"><ele>337.58</ele><time>2026-01-27T18:21:19.000Z</time></trkpt>
        <trkpt lat="29.57311" lon="105.1456033"><ele>336.81</ele><time>2026-01-27T18:21:45.000Z</time></trkpt>
        <trkpt lat="29.5732005" lon="105.1455574"><ele>337.45</ele><time>2026-01-27T18:22:05.000Z</time></trkpt>
        <trkpt lat="29.5732622" lon="105.1454778"><ele>339.45</ele><time>2026-01-27T18:22:15.000Z</time></trkpt>
        <trkpt lat="29.5732522" lon="105.1453709"><ele>340.16</ele><time>2026-01-27T18:22:27.000Z</time></trkpt>
        <trkpt lat="29.5732367" lon="105.1453267"><ele>339.23</ele><time>2026-01-27T18:24:01.000Z</time></trkpt>
        <trkpt lat="29.5732617" lon="105.1454567"><ele>338.79</ele><time>2026-01-27T18:24:19.000Z</time></trkpt>
        <trkpt lat="29.5732712" lon="105.1455768"><ele>338.53</ele><time>2026-01-27T18:24:23.000Z</time></trkpt>
        <trkpt lat="29.5732046" lon="105.1456682"><ele>338.35</ele><time>2026-01-27T18:24:47.000Z</time></trkpt>
        <trkpt lat="29.5731342" lon="105.1457517"><ele>341.08</ele><time>2026-01-27T18:25:41.000Z</time></trkpt>
        <trkpt lat="29.5730224" lon="105.1456672"><ele>340.57</ele><time>2026-01-27T18:25:55.000Z</time></trkpt>
        <trkpt lat="29.5729579" lon="105.1455372"><ele>339.9</ele><time>2026-01-27T18:25:57.000Z</time></trkpt>
        <trkpt lat="29.5729094" lon="105.1453855"><ele>339.73</ele><time>2026-01-27T18:25:59.000Z</time></trkpt>
        <trkpt lat="29.5728711" lon="105.1452601"><ele>340.27</ele><time>2026-01-27T18:26:01.000Z</time></trkpt>
        <trkpt lat="29.5728666" lon="105.145147"><ele>339.94</ele><time>2026-01-27T18:26:03.000Z</time></trkpt>
        <trkpt lat="29.5728909" lon="105.1450411"><ele>339.58</ele><time>2026-01-27T18:26:05.000Z</time></trkpt>
        <trkpt lat="29.5729381" lon="105.1449254"><ele>339.2</ele><time>2026-01-27T18:26:07.000Z</time></trkpt>
        <trkpt lat="29.5729971" lon="105.144817"><ele>338.9</ele><time>2026-01-27T18:26:09.000Z</time></trkpt>
        <trkpt lat="29.573074" lon="105.1447404"><ele>338.47</ele><time>2026-01-27T18:26:11.000Z</time></trkpt>
        <trkpt lat="29.5732328" lon="105.1447454"><ele>338.22</ele><time>2026-01-27T18:26:15.000Z</time></trkpt>
        <trkpt lat="29.5733606" lon="105.1448296"><ele>337.7</ele><time>2026-01-27T18:26:17.000Z</time></trkpt>
        <trkpt lat="29.5734615" lon="105.1449624"><ele>336.75</ele><time>2026-01-27T18:26:19.000Z</time></trkpt>
        <trkpt lat="29.57355" lon="105.145147"><ele>336.21</ele><time>2026-01-27T18:26:21.000Z</time></trkpt>
        <trkpt lat="29.5736348" lon="105.1453278"><ele>336.16</ele><time>2026-01-27T18:26:23.000Z</time></trkpt>
        <trkpt lat="29.5737218" lon="105.1454833"><ele>336.09</ele><time>2026-01-27T18:26:25.000Z</time></trkpt>
        <trkpt lat="29.5738405" lon="105.1456052"><ele>335.32</ele><time>2026-01-27T18:26:27.000Z</time></trkpt>
        <trkpt lat="29.5739973" lon="105.1457071"><ele>334.32</ele><time>2026-01-27T18:26:29.000Z</time></trkpt>
        <trkpt lat="29.5741502" lon="105.1458033"><ele>334.06</ele><time>2026-01-27T18:26:31.000Z</time></trkpt>
        <trkpt lat="29.574265" lon="105.1458781"><ele>335.41</ele><time>2026-01-27T18:26:33.000Z</time></trkpt>
        <trkpt lat="29.5743282" lon="105.1459215"><ele>337.34</ele><time>2026-01-27T18:26:37.000Z</time></trkpt>
        <trkpt lat="29.5742774" lon="105.1458638"><ele>339.77</ele><time>2026-01-27T18:27:27.000Z</time></trkpt>
        <trkpt lat="29.5743477" lon="105.1457633"><ele>339.1</ele><time>2026-01-27T18:28:03.000Z</time></trkpt>
        <trkpt lat="29.5744427" lon="105.1456978"><ele>335.96</ele><time>2026-01-27T18:28:51.000Z</time></trkpt>
        <trkpt lat="29.5744856" lon="105.1456688"><ele>334.08</ele><time>2026-01-27T18:29:34.000Z</time></trkpt>
        <trkpt lat="29.574423" lon="105.1456844"><ele>334.22</ele><time>2026-01-27T18:29:52.000Z</time></trkpt>
        <trkpt lat="29.5743196" lon="105.1457488"><ele>333.14</ele><time>2026-01-27T18:30:42.000Z</time></trkpt>
        <trkpt lat="29.5743205" lon="105.1458379"><ele>332.26</ele><time>2026-01-27T18:31:26.000Z</time></trkpt>
        <trkpt lat="29.5744241" lon="105.1459442"><ele>332.71</ele><time>2026-01-27T18:32:08.000Z</time></trkpt>
        <trkpt lat="29.5745463" lon="105.1460094"><ele>335.16</ele><time>2026-01-27T18:32:10.000Z</time></trkpt>
        <trkpt lat="29.5746782" lon="105.1460654"><ele>337.02</ele><time>2026-01-27T18:32:12.000Z</time></trkpt>
        <trkpt lat="29.5747989" lon="105.1460999"><ele>338.18</ele><time>2026-01-27T18:32:14.000Z</time></trkpt>
        <trkpt lat="29.5749125" lon="105.146105"><ele>338.66</ele><time>2026-01-27T18:32:16.000Z</time></trkpt>
        <trkpt lat="29.5750349" lon="105.1460785"><ele>340.61</ele><time>2026-01-27T18:32:18.000Z</time></trkpt>
        <trkpt lat="29.575163" lon="105.1460453"><ele>342.33</ele><time>2026-01-27T18:32:20.000Z</time></trkpt>
        <trkpt lat="29.575285" lon="105.1460404"><ele>343.52</ele><time>2026-01-27T18:32:22.000Z</time></trkpt>
        <trkpt lat="29.5754118" lon="105.1460903"><ele>344.07</ele><time>2026-01-27T18:32:24.000Z</time></trkpt>
        <trkpt lat="29.5755716" lon="105.1461935"><ele>342.32</ele><time>2026-01-27T18:32:26.000Z</time></trkpt>
        <trkpt lat="29.575752" lon="105.1463218"><ele>340.68</ele><time>2026-01-27T18:32:28.000Z</time></trkpt>
        <trkpt lat="29.5759229" lon="105.1464595"><ele>339.31</ele><time>2026-01-27T18:32:30.000Z</time></trkpt>
        <trkpt lat="29.5760719" lon="105.1465907"><ele>338.62</ele><time>2026-01-27T18:32:32.000Z</time></trkpt>
        <trkpt lat="29.5761885" lon="105.1467143"><ele>338.44</ele><time>2026-01-27T18:32:34.000Z</time></trkpt>
        <trkpt lat="29.5762578" lon="105.1468455"><ele>338.08</ele><time>2026-01-27T18:32:36.000Z</time></trkpt>
        <trkpt lat="29.576282" lon="105.1469805"><ele>337.83</ele><time>2026-01-27T18:32:38.000Z</time></trkpt>
        <trkpt lat="29.5762585" lon="105.1471053"><ele>337.47</ele><time>2026-01-27T18:32:40.000Z</time></trkpt>
        <trkpt lat="29.5761869" lon="105.1472195"><ele>337.74</ele><time>2026-01-27T18:32:42.000Z</time></trkpt>
        <trkpt lat="29.576094" lon="105.1473427"><ele>338.46</ele><time>2026-01-27T18:32:44.000Z</time></trkpt>
        <trkpt lat="29.5759961" lon="105.1474512"><ele>339.98</ele><time>2026-01-27T18:32:46.000Z</time></trkpt>
        <trkpt lat="29.5759028" lon="105.1475367"><ele>341.54</ele><time>2026-01-27T18:32:48.000Z</time></trkpt>
        <trkpt lat="29.5758111" lon="105.1475745"><ele>342.68</ele><time>2026-01-27T18:32:50.000Z</time></trkpt>
        <trkpt lat="29.5757397" lon="105.1475914"><ele>342.48</ele><time>2026-01-27T18:32:54.000Z</time></trkpt>
        <trkpt lat="29.5758077" lon="105.1476619"><ele>340.59</ele><time>2026-01-27T18:33:06.000Z</time></trkpt>
        <trkpt lat="29.5759596" lon="105.1477324"><ele>338.32</ele><time>2026-01-27T18:33:08.000Z</time></trkpt>
        <trkpt lat="29.5761541" lon="105.1477865"><ele>336.89</ele><time>2026-01-27T18:33:10.000Z</time></trkpt>
        <trkpt lat="29.5763527" lon="105.1478589"><ele>335.65</ele><time>2026-01-27T18:33:12.000Z</time></trkpt>
        <trkpt lat="29.5764694" lon="105.1479499"><ele>335.41</ele><time>2026-01-27T18:33:14.000Z</time></trkpt>
        <trkpt lat="29.5764958" lon="105.1480669"><ele>335.62</ele><time>2026-01-27T18:33:16.000Z</time></trkpt>
        <trkpt lat="29.5764717" lon="105.148197"><ele>335.87</ele><time>2026-01-27T18:33:18.000Z</time></trkpt>
        <trkpt lat="29.5764202" lon="105.1483348"><ele>336.27</ele><time>2026-01-27T18:33:20.000Z</time></trkpt>
        <trkpt lat="29.5763597" lon="105.1484998"><ele>336.71</ele><time>2026-01-27T18:33:22.000Z</time></trkpt>
        <trkpt lat="29.5762807" lon="105.1486733"><ele>337.74</ele><time>2026-01-27T18:33:24.000Z</time></trkpt>
        <trkpt lat="29.576213" lon="105.1488214"><ele>338.8</ele><time>2026-01-27T18:33:26.000Z</time></trkpt>
        <trkpt lat="29.5761932" lon="105.1489523"><ele>338.58</ele><time>2026-01-27T18:33:28.000Z</time></trkpt>
        <trkpt lat="29.5762131" lon="105.1490775"><ele>337.9</ele><time>2026-01-27T18:33:30.000Z</time></trkpt>
        <trkpt lat="29.5762602" lon="105.1491779"><ele>336.61</ele><time>2026-01-27T18:33:32.000Z</time></trkpt>
        <trkpt lat="29.5763991" lon="105.1492941"><ele>335.96</ele><time>2026-01-27T18:33:36.000Z</time></trkpt>
        <trkpt lat="29.576537" lon="105.1493528"><ele>335.93</ele><time>2026-01-27T18:33:38.000Z</time></trkpt>
        <trkpt lat="29.5767191" lon="105.149358"><ele>336.31</ele><time>2026-01-27T18:33:40.000Z</time></trkpt>
        <trkpt lat="29.57693" lon="105.1493482"><ele>337.08</ele><time>2026-01-27T18:33:42.000Z</time></trkpt>
        <trkpt lat="29.577146" lon="105.1493312"><ele>339.24</ele><time>2026-01-27T18:33:44.000Z</time></trkpt>
        <trkpt lat="29.5773273" lon="105.149345"><ele>342.19</ele><time>2026-01-27T18:33:46.000Z</time></trkpt>
        <trkpt lat="29.5775063" lon="105.1494485"><ele>345.16</ele><time>2026-01-27T18:33:48.000Z</time></trkpt>
        <trkpt lat="29.5776637" lon="105.1496081"><ele>349.14</ele><time>2026-01-27T18:33:50.000Z</time></trkpt>
        <trkpt lat="29.5777812" lon="105.1498017"><ele>351.96</ele><time>2026-01-27T18:33:52.000Z</time></trkpt>
        <trkpt lat="29.5778542" lon="105.1500132"><ele>353.18</ele><time>2026-01-27T18:33:54.000Z</time></trkpt>
        <trkpt lat="29.5779001" lon="105.1502012"><ele>352.07</ele><time>2026-01-27T18:33:56.000Z</time></trkpt>
        <trkpt lat="29.5779565" lon="105.1503382"><ele>350.53</ele><time>2026-01-27T18:33:58.000Z</time></trkpt>
        <trkpt lat="29.5780503" lon="105.1504259"><ele>349.62</ele><time>2026-01-27T18:34:00.000Z</time></trkpt>
        <trkpt lat="29.5781791" lon="105.150488"><ele>349.18</ele><time>2026-01-27T18:34:02.000Z</time></trkpt>
        <trkpt lat="29.5783345" lon="105.1505347"><ele>349.19</ele><time>2026-01-27T18:34:04.000Z</time></trkpt>
        <trkpt lat="29.578542" lon="105.1505268"><ele>349.24</ele><time>2026-01-27T18:34:06.000Z</time></trkpt>
        <trkpt lat="29.5787544" lon="105.1504891"><ele>349.13</ele><time>2026-01-27T18:34:08.000Z</time></trkpt>
        <trkpt lat="29.5789893" lon="105.1504412"><ele>350.88</ele><time>2026-01-27T18:34:10.000Z</time></trkpt>
        <trkpt lat="29.5792223" lon="105.150421"><ele>354.33</ele><time>2026-01-27T18:34:12.000Z</time></trkpt>
        <trkpt lat="29.5793956" lon="105.1504113"><ele>359.05</ele><time>2026-01-27T18:34:14.000Z</time></trkpt>
        <trkpt lat="29.5795109" lon="105.1503851"><ele>362.43</ele><time>2026-01-27T18:34:16.000Z</time></trkpt>
        <trkpt lat="29.5795887" lon="105.1503248"><ele>365.99</ele><time>2026-01-27T18:34:18.000Z</time></trkpt>
        <trkpt lat="29.5796586" lon="105.1502275"><ele>370.34</ele><time>2026-01-27T18:34:20.000Z</time></trkpt>
        <trkpt lat="29.5797614" lon="105.1502129"><ele>376.34</ele><time>2026-01-27T18:34:24.000Z</time></trkpt>
        <trkpt lat="29.5798302" lon="105.1503167"><ele>374</ele><time>2026-01-27T18:34:26.000Z</time></trkpt>
        <trkpt lat="29.5799126" lon="105.1504572"><ele>370.69</ele><time>2026-01-27T18:34:28.000Z</time></trkpt>
        <trkpt lat="29.5800254" lon="105.1506219"><ele>368.03</ele><time>2026-01-27T18:34:30.000Z</time></trkpt>
        <trkpt lat="29.5801408" lon="105.150793"><ele>365.82</ele><time>2026-01-27T18:34:32.000Z</time></trkpt>
        <trkpt lat="29.5802629" lon="105.1509643"><ele>365.34</ele><time>2026-01-27T18:34:34.000Z</time></trkpt>
        <trkpt lat="29.5803866" lon="105.1511741"><ele>365.06</ele><time>2026-01-27T18:34:36.000Z</time></trkpt>
        <trkpt lat="29.5805112" lon="105.1513777"><ele>363.19</ele><time>2026-01-27T18:34:38.000Z</time></trkpt>
        <trkpt lat="29.5806444" lon="105.1515461"><ele>360.96</ele><time>2026-01-27T18:34:40.000Z</time></trkpt>
        <trkpt lat="29.5807841" lon="105.1516992"><ele>360.11</ele><time>2026-01-27T18:34:42.000Z</time></trkpt>
        <trkpt lat="29.5809192" lon="105.151838"><ele>359.25</ele><time>2026-01-27T18:34:44.000Z</time></trkpt>
        <trkpt lat="29.5810383" lon="105.1519655"><ele>359.36</ele><time>2026-01-27T18:34:46.000Z</time></trkpt>
        <trkpt lat="29.5811651" lon="105.1521231"><ele>359.38</ele><time>2026-01-27T18:34:48.000Z</time></trkpt>
        <trkpt lat="29.5812942" lon="105.1522831"><ele>355.43</ele><time>2026-01-27T18:34:50.000Z</time></trkpt>
        <trkpt lat="29.581393" lon="105.1524519"><ele>352.79</ele><time>2026-01-27T18:34:52.000Z</time></trkpt>
        <trkpt lat="29.5814329" lon="105.1525769"><ele>351.46</ele><time>2026-01-27T18:34:54.000Z</time></trkpt>
        <trkpt lat="29.5814655" lon="105.152729"><ele>350.53</ele><time>2026-01-27T18:34:58.000Z</time></trkpt>
        <trkpt lat="29.5815307" lon="105.152868"><ele>348.54</ele><time>2026-01-27T18:35:00.000Z</time></trkpt>
        <trkpt lat="29.5816443" lon="105.1530117"><ele>347.15</ele><time>2026-01-27T18:35:02.000Z</time></trkpt>
        <trkpt lat="29.5817713" lon="105.1531876"><ele>346.22</ele><time>2026-01-27T18:35:04.000Z</time></trkpt>
        <trkpt lat="29.5818541" lon="105.1533829"><ele>345.22</ele><time>2026-01-27T18:35:06.000Z</time></trkpt>
        <trkpt lat="29.5818833" lon="105.1535848"><ele>343.71</ele><time>2026-01-27T18:35:08.000Z</time></trkpt>
        <trkpt lat="29.5818767" lon="105.1537958"><ele>341.6</ele><time>2026-01-27T18:35:10.000Z</time></trkpt>
        <trkpt lat="29.5818893" lon="105.1540062"><ele>339.92</ele><time>2026-01-27T18:35:12.000Z</time></trkpt>
        <trkpt lat="29.581943" lon="105.1541926"><ele>338.88</ele><time>2026-01-27T18:35:14.000Z</time></trkpt>
        <trkpt lat="29.5820313" lon="105.1543721"><ele>338.16</ele><time>2026-01-27T18:35:16.000Z</time></trkpt>
        <trkpt lat="29.5821545" lon="105.1545463"><ele>337.57</ele><time>2026-01-27T18:35:18.000Z</time></trkpt>
        <trkpt lat="29.5823113" lon="105.154717"><ele>336.98</ele><time>2026-01-27T18:35:20.000Z</time></trkpt>
        <trkpt lat="29.5824783" lon="105.1548858"><ele>336.9</ele><time>2026-01-27T18:35:22.000Z</time></trkpt>
        <trkpt lat="29.5826303" lon="105.1550785"><ele>336.82</ele><time>2026-01-27T18:35:24.000Z</time></trkpt>
        <trkpt lat="29.5827418" lon="105.1552752"><ele>336.29</ele><time>2026-01-27T18:35:26.000Z</time></trkpt>
        <trkpt lat="29.5827691" lon="105.1554898"><ele>335.56</ele><time>2026-01-27T18:35:28.000Z</time></trkpt>
        <trkpt lat="29.5827551" lon="105.1556476"><ele>337.26</ele><time>2026-01-27T18:35:30.000Z</time></trkpt>
        <trkpt lat="29.5827204" lon="105.1557845"><ele>339.04</ele><time>2026-01-27T18:35:32.000Z</time></trkpt>
        <trkpt lat="29.5826433" lon="105.1559036"><ele>339.93</ele><time>2026-01-27T18:35:34.000Z</time></trkpt>
        <trkpt lat="29.5825484" lon="105.1560474"><ele>340.22</ele><time>2026-01-27T18:35:36.000Z</time></trkpt>
        <trkpt lat="29.5824726" lon="105.1562099"><ele>339.99</ele><time>2026-01-27T18:35:38.000Z</time></trkpt>
        <trkpt lat="29.5823846" lon="105.1563429"><ele>339.52</ele><time>2026-01-27T18:35:40.000Z</time></trkpt>
        <trkpt lat="29.5822766" lon="105.1564163"><ele>339.64</ele><time>2026-01-27T18:35:42.000Z</time></trkpt>
        <trkpt lat="29.5821248" lon="105.1564002"><ele>339.71</ele><time>2026-01-27T18:35:44.000Z</time></trkpt>
        <trkpt lat="29.5819386" lon="105.1563338"><ele>340.09</ele><time>2026-01-27T18:35:46.000Z</time></trkpt>
        <trkpt lat="29.5817969" lon="105.1562611"><ele>340.14</ele><time>2026-01-27T18:35:48.000Z</time></trkpt>
        <trkpt lat="29.5817327" lon="105.1562249"><ele>339.95</ele><time>2026-01-27T18:35:52.000Z</time></trkpt>
        <trkpt lat="29.5818028" lon="105.156221"><ele>338.64</ele><time>2026-01-27T18:36:22.000Z</time></trkpt>
        <trkpt lat="29.5819098" lon="105.1562501"><ele>336.6</ele><time>2026-01-27T18:36:34.000Z</time></trkpt>
        <trkpt lat="29.5820219" lon="105.1562832"><ele>335.35</ele><time>2026-01-27T18:36:42.000Z</time></trkpt>
        <trkpt lat="29.5821261" lon="105.1563113"><ele>334.94</ele><time>2026-01-27T18:36:48.000Z</time></trkpt>
        <trkpt lat="29.5821908" lon="105.1563208"><ele>335.01</ele><time>2026-01-27T18:36:52.000Z</time></trkpt>
        <trkpt lat="29.582079" lon="105.156303"><ele>336.12</ele><time>2026-01-27T18:37:08.000Z</time></trkpt>
        <trkpt lat="29.5819428" lon="105.1562632"><ele>336.41</ele><time>2026-01-27T18:37:10.000Z</time></trkpt>
        <trkpt lat="29.5818381" lon="105.1562274"><ele>336.32</ele><time>2026-01-27T18:37:14.000Z</time></trkpt>
        <trkpt lat="29.5818957" lon="105.1562515"><ele>335.67</ele><time>2026-01-27T18:37:44.000Z</time></trkpt>
        <trkpt lat="29.582012" lon="105.1562985"><ele>339.6</ele><time>2026-01-27T18:37:50.000Z</time></trkpt>
        <trkpt lat="29.5821268" lon="105.1563285"><ele>342.26</ele><time>2026-01-27T18:37:56.000Z</time></trkpt>
        <trkpt lat="29.5821785" lon="105.1563346"><ele>344.17</ele><time>2026-01-27T18:37:58.000Z</time></trkpt>
        <trkpt lat="29.5820319" lon="105.1563051"><ele>345.3</ele><time>2026-01-27T18:38:14.000Z</time></trkpt>
        <trkpt lat="29.5818604" lon="105.1562486"><ele>344.96</ele><time>2026-01-27T18:38:16.000Z</time></trkpt>
        <trkpt lat="29.5817079" lon="105.1561898"><ele>344.63</ele><time>2026-01-27T18:38:18.000Z</time></trkpt>
        <trkpt lat="29.5815672" lon="105.1561817"><ele>344.75</ele><time>2026-01-27T18:38:20.000Z</time></trkpt>
        <trkpt lat="29.5814614" lon="105.1562852"><ele>345.03</ele><time>2026-01-27T18:38:22.000Z</time></trkpt>
        <trkpt lat="29.5813705" lon="105.1564539"><ele>345.92</ele><time>2026-01-27T18:38:24.000Z</time></trkpt>
        <trkpt lat="29.5812874" lon="105.1566455"><ele>345.74</ele><time>2026-01-27T18:38:26.000Z</time></trkpt>
        <trkpt lat="29.5812381" lon="105.1568006"><ele>345.34</ele><time>2026-01-27T18:38:28.000Z</time></trkpt>
        <trkpt lat="29.581245" lon="105.1569196"><ele>344.12</ele><time>2026-01-27T18:38:30.000Z</time></trkpt>
        <trkpt lat="29.5813212" lon="105.1570835"><ele>343.12</ele><time>2026-01-27T18:38:34.000Z</time></trkpt>
        <trkpt lat="29.5813608" lon="105.1572292"><ele>343.46</ele><time>2026-01-27T18:38:38.000Z</time></trkpt>
        <trkpt lat="29.5814384" lon="105.1573327"><ele>344.12</ele><time>2026-01-27T18:39:14.000Z</time></trkpt>
        <trkpt lat="29.5815349" lon="105.1573897"><ele>345.36</ele><time>2026-01-27T18:39:20.000Z</time></trkpt>
        <trkpt lat="29.5816406" lon="105.1574045"><ele>346.84</ele><time>2026-01-27T18:39:44.000Z</time></trkpt>
        <trkpt lat="29.5817472" lon="105.1573915"><ele>347.12</ele><time>2026-01-27T18:39:54.000Z</time></trkpt>
        <trkpt lat="29.5818222" lon="105.1573625"><ele>347.16</ele><time>2026-01-27T18:39:58.000Z</time></trkpt>
        <trkpt lat="29.5819072" lon="105.1573153"><ele>347.61</ele><time>2026-01-27T18:40:24.000Z</time></trkpt>
        <trkpt lat="29.5819381" lon="105.1572982"><ele>346.83</ele><time>2026-01-27T18:40:26.000Z</time></trkpt>
        <trkpt lat="29.5820434" lon="105.1572645"><ele>346.47</ele><time>2026-01-27T18:40:40.000Z</time></trkpt>
        <trkpt lat="29.5821099" lon="105.1572445"><ele>345.92</ele><time>2026-01-27T18:40:44.000Z</time></trkpt>
        <trkpt lat="29.5821735" lon="105.1571677"><ele>345.66</ele><time>2026-01-27T18:41:00.000Z</time></trkpt>
        <trkpt lat="29.5822019" lon="105.1570534"><ele>344.69</ele><time>2026-01-27T18:41:06.000Z</time></trkpt>
        <trkpt lat="29.5822079" lon="105.1570036"><ele>344.95</ele><time>2026-01-27T18:41:08.000Z</time></trkpt>
        <trkpt lat="29.5822168" lon="105.1568619"><ele>345.4</ele><time>2026-01-27T18:41:48.000Z</time></trkpt>
        <trkpt lat="29.5822517" lon="105.1569317"><ele>344.54</ele><time>2026-01-27T18:43:00.000Z</time></trkpt>
        <trkpt lat="29.5821817" lon="105.1570167"><ele>345.9</ele><time>2026-01-27T18:43:16.000Z</time></trkpt>
        <trkpt lat="29.5821723" lon="105.1570495"><ele>345.94</ele><time>2026-01-27T18:43:18.000Z</time></trkpt>
        <trkpt lat="29.5821505" lon="105.15714"><ele>345.97</ele><time>2026-01-27T18:43:28.000Z</time></trkpt>
        <trkpt lat="29.5821365" lon="105.157178"><ele>346.37</ele><time>2026-01-27T18:43:30.000Z</time></trkpt>
        <trkpt lat="29.582076" lon="105.1572486"><ele>346.55</ele><time>2026-01-27T18:43:42.000Z</time></trkpt>
        <trkpt lat="29.5819713" lon="105.1572891"><ele>347.65</ele><time>2026-01-27T18:43:56.000Z</time></trkpt>
        <trkpt lat="29.581894" lon="105.157388"><ele>347.2</ele><time>2026-01-27T18:44:12.000Z</time></trkpt>
        <trkpt lat="29.5818777" lon="105.1574318"><ele>346.77</ele><time>2026-01-27T18:44:14.000Z</time></trkpt>
        <trkpt lat="29.5818891" lon="105.1575267"><ele>346.57</ele><time>2026-01-27T18:44:24.000Z</time></trkpt>
        <trkpt lat="29.5819333" lon="105.1576567"><ele>346.8</ele><time>2026-01-27T18:45:29.000Z</time></trkpt>
        <trkpt lat="29.581955" lon="105.1577783"><ele>348.17</ele><time>2026-01-27T18:45:45.000Z</time></trkpt>
        <trkpt lat="29.581909" lon="105.1578704"><ele>348.49</ele><time>2026-01-27T18:45:55.000Z</time></trkpt>
        <trkpt lat="29.5818523" lon="105.1579572"><ele>347.33</ele><time>2026-01-27T18:46:03.000Z</time></trkpt>
        <trkpt lat="29.5818244" lon="105.1579958"><ele>346.84</ele><time>2026-01-27T18:46:05.000Z</time></trkpt>
        <trkpt lat="29.5817507" lon="105.1580339"><ele>346.83</ele><time>2026-01-27T18:46:13.000Z</time></trkpt>
        <trkpt lat="29.5816786" lon="105.1580309"><ele>347.37</ele><time>2026-01-27T18:46:19.000Z</time></trkpt>
        <trkpt lat="29.5815593" lon="105.1579845"><ele>348.16</ele><time>2026-01-27T18:46:35.000Z</time></trkpt>
        <trkpt lat="29.581479" lon="105.1579393"><ele>348.09</ele><time>2026-01-27T18:46:39.000Z</time></trkpt>
        <trkpt lat="29.5813911" lon="105.1579023"><ele>348.35</ele><time>2026-01-27T18:46:57.000Z</time></trkpt>
        <trkpt lat="29.581485" lon="105.1579167"><ele>350.09</ele><time>2026-01-27T18:48:59.000Z</time></trkpt>
        <trkpt lat="29.58157" lon="105.1579533"><ele>349.67</ele><time>2026-01-27T18:51:09.000Z</time></trkpt>
        <trkpt lat="29.58166" lon="105.157965"><ele>348.78</ele><time>2026-01-27T18:51:19.000Z</time></trkpt>
        <trkpt lat="29.58166" lon="105.157965"><ele>348.78</ele><time>2026-01-27T18:51:26.000Z</time></trkpt>
      </trkseg>
  </trk>
</gpx>